sensor_id;sensor_type;location;lat;lon;timestamp;pressure;altitude;pressure_sealevel;temperature;humidity
40940;BME280;26666;50.156;7.700;2023-02-23T00:00:13;100119.97;;;8.39;100.00
40940;BME280;26666;50.156;7.700;2023-02-23T00:05:16;100117.19;;;8.40;100.00
40940;BME280;26666;50.156;7.700;2023-02-23T00:10:17;100114.34;;;8.32;100.00
40940;BME280;26666;50.156;7.700;2023-02-23T00:15:19;100116.38;;;8.40;100.00
40940;BME280;26666;50.156;7.700;2023-02-23T00:20:22;100122.59;;;8.50;100.00
40940;BME280;26666;50.156;7.700;2023-02-23T00:25:24;100111.50;;;8.46;100.00
40940;BME280;26666;50.156;7.700;2023-02-23T00:30:26;100116.16;;;8.43;100.00
40940;BME280;26666;50.156;7.700;2023-02-23T00:35:27;100115.28;;;8.42;100.00
40940;BME280;26666;50.156;7.700;2023-02-23T00:40:29;100116.16;;;8.32;100.00
40940;BME280;26666;50.156;7.700;2023-02-23T00:45:30;100104.53;;;8.34;100.00
40940;BME280;26666;50.156;7.700;2023-02-23T00:50:32;100110.38;;;8.38;100.00
40940;BME280;26666;50.156;7.700;2023-02-23T00:55:33;100105.13;;;8.38;100.00
40940;BME280;26666;50.156;7.700;2023-02-23T01:00:35;100100.94;;;8.35;100.00
40940;BME280;26666;50.156;7.700;2023-02-23T01:05:36;100107.97;;;8.35;100.00
40940;BME280;26666;50.156;7.700;2023-02-23T01:10:39;100099.84;;;8.38;100.00
40940;BME280;26666;50.156;7.700;2023-02-23T01:15:42;100097.22;;;8.38;100.00
40940;BME280;26666;50.156;7.700;2023-02-23T01:20:45;100108.84;;;8.35;100.00
40940;BME280;26666;50.156;7.700;2023-02-23T01:25:47;100107.41;;;8.31;100.00
40940;BME280;26666;50.156;7.700;2023-02-23T01:30:49;100105.50;;;8.33;100.00
40940;BME280;26666;50.156;7.700;2023-02-23T01:35:58;100103.56;;;8.35;100.00
40940;BME280;26666;50.156;7.700;2023-02-23T01:40:59;100101.66;;;8.37;100.00
40940;BME280;26666;50.156;7.700;2023-02-23T01:46:01;100100.84;;;8.25;100.00
40940;BME280;26666;50.156;7.700;2023-02-23T01:51:09;100109.66;;;8.36;100.00
40940;BME280;26666;50.156;7.700;2023-02-23T01:56:18;100097.84;;;8.30;100.00
40940;BME280;26666;50.156;7.700;2023-02-23T02:01:21;100101.53;;;8.39;100.00
40940;BME280;26666;50.156;7.700;2023-02-23T02:06:25;100096.28;;;8.39;100.00
40940;BME280;26666;50.156;7.700;2023-02-23T02:11:26;100090.53;;;8.34;100.00
40940;BME280;26666;50.156;7.700;2023-02-23T02:32:47;100082.88;;;8.30;100.00
40940;BME280;26666;50.156;7.700;2023-02-23T02:43:44;100086.34;;;8.42;100.00
40940;BME280;26666;50.156;7.700;2023-02-23T02:54:08;100076.44;;;8.23;100.00
40940;BME280;26666;50.156;7.700;2023-02-23T02:59:13;100066.59;;;8.37;100.00
40940;BME280;26666;50.156;7.700;2023-02-23T03:04:21;100066.00;;;8.33;100.00
40940;BME280;26666;50.156;7.700;2023-02-23T03:19:56;100064.22;;;8.34;100.00
40940;BME280;26666;50.156;7.700;2023-02-23T03:25:05;100062.75;;;8.41;100.00
40940;BME280;26666;50.156;7.700;2023-02-23T03:35:26;100064.59;;;8.29;100.00
40940;BME280;26666;50.156;7.700;2023-02-23T03:40:37;100065.63;;;8.38;100.00
40940;BME280;26666;50.156;7.700;2023-02-23T03:45:42;100072.50;;;8.29;100.00
40940;BME280;26666;50.156;7.700;2023-02-23T03:50:49;100069.69;;;8.30;100.00
40940;BME280;26666;50.156;7.700;2023-02-23T03:55:55;100074.03;;;8.32;100.00
40940;BME280;26666;50.156;7.700;2023-02-23T04:01:00;100078.78;;;8.38;100.00
40940;BME280;26666;50.156;7.700;2023-02-23T04:06:06;100079.19;;;8.33;100.00
40940;BME280;26666;50.156;7.700;2023-02-23T04:11:29;100085.06;;;8.25;100.00
40940;BME280;26666;50.156;7.700;2023-02-23T04:16:31;100082.50;;;8.35;100.00
40940;BME280;26666;50.156;7.700;2023-02-23T04:21:33;100080.59;;;8.37;100.00
40940;BME280;26666;50.156;7.700;2023-02-23T04:26:35;100089.22;;;8.39;100.00
40940;BME280;26666;50.156;7.700;2023-02-23T04:31:37;100089.84;;;8.43;100.00
40940;BME280;26666;50.156;7.700;2023-02-23T04:36:39;100090.41;;;8.46;100.00
40940;BME280;26666;50.156;7.700;2023-02-23T04:41:41;100096.25;;;8.50;100.00
40940;BME280;26666;50.156;7.700;2023-02-23T04:46:42;100096.25;;;8.50;100.00
40940;BME280;26666;50.156;7.700;2023-02-23T04:51:44;100095.31;;;8.51;100.00
40940;BME280;26666;50.156;7.700;2023-02-23T04:56:45;100082.38;;;8.48;100.00
40940;BME280;26666;50.156;7.700;2023-02-23T05:01:47;100090.97;;;8.50;100.00
40940;BME280;26666;50.156;7.700;2023-02-23T05:06:49;100089.34;;;8.49;100.00
40940;BME280;26666;50.156;7.700;2023-02-23T05:11:50;100093.28;;;8.43;100.00
40940;BME280;26666;50.156;7.700;2023-02-23T05:16:52;100091.50;;;8.44;100.00
40940;BME280;26666;50.156;7.700;2023-02-23T05:21:55;100091.97;;;8.38;100.00
40940;BME280;26666;50.156;7.700;2023-02-23T05:26:56;100093.50;;;8.40;100.00
40940;BME280;26666;50.156;7.700;2023-02-23T05:31:58;100096.00;;;8.53;100.00
40940;BME280;26666;50.156;7.700;2023-02-23T05:37:00;100098.44;;;8.45;100.00
40940;BME280;26666;50.156;7.700;2023-02-23T05:42:01;100099.03;;;8.37;100.00
40940;BME280;26666;50.156;7.700;2023-02-23T05:47:03;100103.81;;;8.43;100.00
40940;BME280;26666;50.156;7.700;2023-02-23T05:52:05;100100.47;;;8.41;100.00
40940;BME280;26666;50.156;7.700;2023-02-23T05:57:06;100109.28;;;8.40;100.00
40940;BME280;26666;50.156;7.700;2023-02-23T06:02:08;100110.78;;;8.44;100.00
40940;BME280;26666;50.156;7.700;2023-02-23T06:07:09;100104.19;;;8.39;100.00
40940;BME280;26666;50.156;7.700;2023-02-23T06:12:11;100105.22;;;8.36;100.00
40940;BME280;26666;50.156;7.700;2023-02-23T06:17:12;100114.94;;;8.36;100.00
40940;BME280;26666;50.156;7.700;2023-02-23T06:22:16;100112.91;;;8.39;100.00
40940;BME280;26666;50.156;7.700;2023-02-23T06:27:17;100126.91;;;8.51;100.00
40940;BME280;26666;50.156;7.700;2023-02-23T06:32:19;100127.13;;;8.48;100.00
40940;BME280;26666;50.156;7.700;2023-02-23T06:37:21;100123.06;;;8.33;100.00
40940;BME280;26666;50.156;7.700;2023-02-23T06:42:23;100126.69;;;8.43;100.00
40940;BME280;26666;50.156;7.700;2023-02-23T06:47:24;100135.91;;;8.48;100.00
40940;BME280;26666;50.156;7.700;2023-02-23T06:52:26;100129.53;;;8.40;100.00
40940;BME280;26666;50.156;7.700;2023-02-23T06:57:27;100138.25;;;8.40;100.00
40940;BME280;26666;50.156;7.700;2023-02-23T07:02:29;100142.59;;;8.41;100.00
40940;BME280;26666;50.156;7.700;2023-02-23T07:07:31;100146.66;;;8.45;100.00
40940;BME280;26666;50.156;7.700;2023-02-23T07:12:32;100154.06;;;8.40;100.00
40940;BME280;26666;50.156;7.700;2023-02-23T07:17:36;100159.94;;;8.44;100.00
40940;BME280;26666;50.156;7.700;2023-02-23T07:22:38;100163.56;;;8.43;100.00
40940;BME280;26666;50.156;7.700;2023-02-23T07:27:40;100165.22;;;8.44;100.00
40940;BME280;26666;50.156;7.700;2023-02-23T07:32:41;100172.38;;;8.53;100.00
40940;BME280;26666;50.156;7.700;2023-02-23T07:37:43;100175.84;;;8.54;100.00
40940;BME280;26666;50.156;7.700;2023-02-23T07:42:45;100182.41;;;8.59;100.00
40940;BME280;26666;50.156;7.700;2023-02-23T07:47:46;100185.66;;;8.63;100.00
40940;BME280;26666;50.156;7.700;2023-02-23T07:52:49;100185.28;;;8.67;100.00
40940;BME280;26666;50.156;7.700;2023-02-23T07:57:51;100189.59;;;8.68;100.00
40940;BME280;26666;50.156;7.700;2023-02-23T08:02:52;100196.06;;;8.76;100.00
40940;BME280;26666;50.156;7.700;2023-02-23T08:07:54;100196.38;;;8.82;100.00
40940;BME280;26666;50.156;7.700;2023-02-23T08:13:00;100192.31;;;8.90;100.00
40940;BME280;26666;50.156;7.700;2023-02-23T08:18:02;100195.16;;;8.98;100.00
40940;BME280;26666;50.156;7.700;2023-02-23T08:23:06;100189.38;;;9.04;100.00
40940;BME280;26666;50.156;7.700;2023-02-23T08:28:08;100195.31;;;9.17;100.00
40940;BME280;26666;50.156;7.700;2023-02-23T08:33:09;100192.16;;;9.23;100.00
40940;BME280;26666;50.156;7.700;2023-02-23T08:38:11;100194.91;;;9.22;100.00
40940;BME280;26666;50.156;7.700;2023-02-23T08:43:13;100191.94;;;9.26;100.00
40940;BME280;26666;50.156;7.700;2023-02-23T08:48:14;100199.97;;;9.25;100.00
40940;BME280;26666;50.156;7.700;2023-02-23T08:53:16;100207.94;;;9.35;100.00
40940;BME280;26666;50.156;7.700;2023-02-23T08:58:17;100209.88;;;9.33;100.00
40940;BME280;26666;50.156;7.700;2023-02-23T09:03:20;100209.94;;;9.42;100.00
40940;BME280;26666;50.156;7.700;2023-02-23T09:08:21;100210.78;;;9.43;100.00
40940;BME280;26666;50.156;7.700;2023-02-23T09:13:23;100217.66;;;9.34;100.00
40940;BME280;26666;50.156;7.700;2023-02-23T09:18:28;100217.50;;;9.15;100.00
40940;BME280;26666;50.156;7.700;2023-02-23T09:23:30;100229.66;;;9.27;100.00
40940;BME280;26666;50.156;7.700;2023-02-23T09:28:32;100220.66;;;9.30;100.00
40940;BME280;26666;50.156;7.700;2023-02-23T09:33:33;100224.63;;;9.24;100.00
40940;BME280;26666;50.156;7.700;2023-02-23T09:38:35;100237.25;;;9.20;100.00
40940;BME280;26666;50.156;7.700;2023-02-23T09:49:12;100250.38;;;9.32;100.00
40940;BME280;26666;50.156;7.700;2023-02-23T09:54:16;100239.91;;;9.41;100.00
40940;BME280;26666;50.156;7.700;2023-02-23T09:59:20;100250.28;;;9.54;100.00
40940;BME280;26666;50.156;7.700;2023-02-23T10:04:26;100254.34;;;9.58;100.00
40940;BME280;26666;50.156;7.700;2023-02-23T10:09:55;100266.22;;;9.53;100.00
40940;BME280;26666;50.156;7.700;2023-02-23T10:21:01;100266.34;;;9.51;100.00
40940;BME280;26666;50.156;7.700;2023-02-23T10:26:04;100270.03;;;9.60;100.00
40940;BME280;26666;50.156;7.700;2023-02-23T10:36:37;100277.84;;;9.61;100.00
40940;BME280;26666;50.156;7.700;2023-02-23T10:41:40;100275.72;;;9.76;100.00
40940;BME280;26666;50.156;7.700;2023-02-23T10:46:42;100278.28;;;9.87;100.00
40940;BME280;26666;50.156;7.700;2023-02-23T10:51:46;100287.13;;;9.77;100.00
40940;BME280;26666;50.156;7.700;2023-02-23T10:56:47;100289.03;;;9.75;100.00
40940;BME280;26666;50.156;7.700;2023-02-23T11:01:49;100292.25;;;9.78;100.00
40940;BME280;26666;50.156;7.700;2023-02-23T11:07:06;100296.69;;;9.78;100.00
40940;BME280;26666;50.156;7.700;2023-02-23T11:12:20;100293.41;;;9.85;100.00
40940;BME280;26666;50.156;7.700;2023-02-23T11:17:33;100292.66;;;9.95;100.00
40940;BME280;26666;50.156;7.700;2023-02-23T11:22:36;100294.72;;;9.91;100.00
40940;BME280;26666;50.156;7.700;2023-02-23T11:27:46;100294.13;;;9.87;100.00
40940;BME280;26666;50.156;7.700;2023-02-23T11:32:53;100285.69;;;9.94;100.00
40940;BME280;26666;50.156;7.700;2023-02-23T11:38:14;100276.56;;;9.98;100.00
40940;BME280;26666;50.156;7.700;2023-02-23T11:43:16;100276.88;;;10.04;100.00
40940;BME280;26666;50.156;7.700;2023-02-23T11:48:31;100269.22;;;10.01;100.00
40940;BME280;26666;50.156;7.700;2023-02-23T11:53:36;100261.94;;;10.15;100.00
40940;BME280;26666;50.156;7.700;2023-02-23T11:58:43;100262.38;;;10.20;100.00
40940;BME280;26666;50.156;7.700;2023-02-23T12:03:55;100263.78;;;10.24;100.00
40940;BME280;26666;50.156;7.700;2023-02-23T12:09:03;100263.78;;;10.24;100.00
40940;BME280;26666;50.156;7.700;2023-02-23T12:14:24;100259.75;;;10.20;100.00
40940;BME280;26666;50.156;7.700;2023-02-23T12:19:39;100251.16;;;10.27;100.00
40940;BME280;26666;50.156;7.700;2023-02-23T12:24:50;100255.75;;;10.25;100.00
40940;BME280;26666;50.156;7.700;2023-02-23T12:35:18;100243.81;;;10.31;100.00
40940;BME280;26666;50.156;7.700;2023-02-23T12:40:25;100246.22;;;10.34;100.00
40940;BME280;26666;50.156;7.700;2023-02-23T12:45:34;100243.03;;;10.40;100.00
40940;BME280;26666;50.156;7.700;2023-02-23T12:50:40;100236.38;;;10.46;100.00
40940;BME280;26666;50.156;7.700;2023-02-23T13:01:25;100228.25;;;10.59;100.00
40940;BME280;26666;50.156;7.700;2023-02-23T13:06:38;100233.13;;;10.63;100.00
40940;BME280;26666;50.156;7.700;2023-02-23T13:12:12;100227.69;;;10.65;100.00
40940;BME280;26666;50.156;7.700;2023-02-23T13:17:31;100223.06;;;10.48;100.00
40940;BME280;26666;50.156;7.700;2023-02-23T13:22:47;100220.72;;;10.64;100.00
40940;BME280;26666;50.156;7.700;2023-02-23T13:27:56;100225.59;;;10.59;100.00
40940;BME280;26666;50.156;7.700;2023-02-23T13:33:02;100229.53;;;10.74;100.00
40940;BME280;26666;50.156;7.700;2023-02-23T13:43:35;100233.56;;;10.78;100.00
40940;BME280;26666;50.156;7.700;2023-02-23T13:59:20;100236.34;;;10.77;100.00
40940;BME280;26666;50.156;7.700;2023-02-23T14:04:34;100233.84;;;10.75;100.00
40940;BME280;26666;50.156;7.700;2023-02-23T14:09:43;100232.03;;;10.76;100.00
40940;BME280;26666;50.156;7.700;2023-02-23T14:14:48;100225.78;;;10.77;100.00
40940;BME280;26666;50.156;7.700;2023-02-23T14:30:46;100239.09;;;10.65;100.00
40940;BME280;26666;50.156;7.700;2023-02-23T14:35:48;100234.38;;;10.69;100.00
40940;BME280;26666;50.156;7.700;2023-02-23T14:40:52;100233.44;;;10.70;100.00
40940;BME280;26666;50.156;7.700;2023-02-23T14:45:54;100232.00;;;10.66;100.00
40940;BME280;26666;50.156;7.700;2023-02-23T14:56:45;100227.81;;;10.63;100.00
40940;BME280;26666;50.156;7.700;2023-02-23T15:01:48;100235.19;;;10.60;100.00
40940;BME280;26666;50.156;7.700;2023-02-23T15:06:58;100228.63;;;10.54;100.00
40940;BME280;26666;50.156;7.700;2023-02-23T15:12:10;100241.00;;;10.54;100.00
40940;BME280;26666;50.156;7.700;2023-02-23T15:17:15;100237.66;;;10.52;100.00
40940;BME280;26666;50.156;7.700;2023-02-23T15:22:24;100245.56;;;10.42;100.00
40940;BME280;26666;50.156;7.700;2023-02-23T15:27:36;100243.25;;;10.27;100.00
40940;BME280;26666;50.156;7.700;2023-02-23T15:32:41;100247.50;;;10.40;100.00
40940;BME280;26666;50.156;7.700;2023-02-23T15:37:47;100244.97;;;10.38;100.00
40940;BME280;26666;50.156;7.700;2023-02-23T15:43:08;100240.34;;;10.31;100.00
40940;BME280;26666;50.156;7.700;2023-02-23T15:48:15;100240.94;;;10.34;100.00
40940;BME280;26666;50.156;7.700;2023-02-23T15:53:37;100247.44;;;10.30;100.00
40940;BME280;26666;50.156;7.700;2023-02-23T15:58:46;100249.47;;;10.26;100.00
40940;BME280;26666;50.156;7.700;2023-02-23T16:04:05;100255.75;;;10.25;100.00
40940;BME280;26666;50.156;7.700;2023-02-23T16:09:13;100253.75;;;10.18;100.00
40940;BME280;26666;50.156;7.700;2023-02-23T16:14:17;100262.50;;;10.18;100.00
40940;BME280;26666;50.156;7.700;2023-02-23T16:19:20;100264.38;;;10.06;100.00
40940;BME280;26666;50.156;7.700;2023-02-23T16:24:26;100268.84;;;10.06;100.00
40940;BME280;26666;50.156;7.700;2023-02-23T16:29:35;100271.34;;;10.07;100.00
40940;BME280;26666;50.156;7.700;2023-02-23T16:34:48;100273.84;;;10.09;100.00
40940;BME280;26666;50.156;7.700;2023-02-23T16:39:51;100270.97;;;10.12;100.00
40940;BME280;26666;50.156;7.700;2023-02-23T16:44:53;100267.75;;;10.09;100.00
40940;BME280;26666;50.156;7.700;2023-02-23T16:49:54;100268.56;;;10.09;100.00
40940;BME280;26666;50.156;7.700;2023-02-23T16:54:56;100272.84;;;10.00;100.00
40940;BME280;26666;50.156;7.700;2023-02-23T16:59:58;100275.00;;;9.95;100.00
40940;BME280;26666;50.156;7.700;2023-02-23T17:04:59;100283.34;;;9.91;100.00
40940;BME280;26666;50.156;7.700;2023-02-23T17:10:01;100285.56;;;9.95;100.00
40940;BME280;26666;50.156;7.700;2023-02-23T17:15:03;100290.59;;;9.98;100.00
40940;BME280;26666;50.156;7.700;2023-02-23T17:20:05;100296.38;;;9.92;100.00
40940;BME280;26666;50.156;7.700;2023-02-23T17:25:07;100296.88;;;9.86;100.00
40940;BME280;26666;50.156;7.700;2023-02-23T17:30:09;100298.50;;;9.77;100.00
40940;BME280;26666;50.156;7.700;2023-02-23T17:35:11;100305.38;;;9.68;100.00
40940;BME280;26666;50.156;7.700;2023-02-23T17:40:17;100316.97;;;9.77;100.00
40940;BME280;26666;50.156;7.700;2023-02-23T17:45:19;100311.88;;;9.64;100.00
40940;BME280;26666;50.156;7.700;2023-02-23T17:50:21;100317.41;;;9.61;100.00
40940;BME280;26666;50.156;7.700;2023-02-23T17:55:23;100315.72;;;9.60;100.00
40940;BME280;26666;50.156;7.700;2023-02-23T18:00:25;100312.41;;;9.47;100.00
40940;BME280;26666;50.156;7.700;2023-02-23T18:05:27;100311.69;;;9.45;100.00
40940;BME280;26666;50.156;7.700;2023-02-23T18:10:28;100314.53;;;9.53;100.00
40940;BME280;26666;50.156;7.700;2023-02-23T18:15:31;100304.13;;;9.52;100.00
40940;BME280;26666;50.156;7.700;2023-02-23T18:20:33;100306.19;;;9.48;100.00
40940;BME280;26666;50.156;7.700;2023-02-23T18:25:35;100305.97;;;9.40;100.00
40940;BME280;26666;50.156;7.700;2023-02-23T18:30:36;100305.16;;;9.28;100.00
40940;BME280;26666;50.156;7.700;2023-02-23T18:35:42;100308.38;;;9.32;100.00
40940;BME280;26666;50.156;7.700;2023-02-23T18:40:44;100303.00;;;9.33;100.00
40940;BME280;26666;50.156;7.700;2023-02-23T18:45:45;100308.63;;;9.40;100.00
40940;BME280;26666;50.156;7.700;2023-02-23T18:50:47;100305.91;;;9.51;100.00
40940;BME280;26666;50.156;7.700;2023-02-23T18:55:48;100307.13;;;9.47;100.00
40940;BME280;26666;50.156;7.700;2023-02-23T19:00:50;100310.25;;;9.52;100.00
40940;BME280;26666;50.156;7.700;2023-02-23T19:05:51;100308.00;;;9.47;100.00
40940;BME280;26666;50.156;7.700;2023-02-23T19:10:53;100309.34;;;9.42;100.00
40940;BME280;26666;50.156;7.700;2023-02-23T19:15:54;100306.94;;;9.39;100.00
40940;BME280;26666;50.156;7.700;2023-02-23T19:20:56;100307.03;;;9.37;100.00
40940;BME280;26666;50.156;7.700;2023-02-23T19:25:57;100306.34;;;9.35;100.00
40940;BME280;26666;50.156;7.700;2023-02-23T19:31:04;100304.53;;;9.36;100.00
40940;BME280;26666;50.156;7.700;2023-02-23T19:36:10;100302.88;;;9.35;100.00
40940;BME280;26666;50.156;7.700;2023-02-23T19:41:14;100308.66;;;9.28;100.00
40940;BME280;26666;50.156;7.700;2023-02-23T19:46:16;100310.31;;;9.30;100.00
40940;BME280;26666;50.156;7.700;2023-02-23T19:51:18;100311.41;;;9.27;100.00
40940;BME280;26666;50.156;7.700;2023-02-23T19:56:21;100312.50;;;9.24;100.00
40940;BME280;26666;50.156;7.700;2023-02-23T20:01:24;100315.38;;;9.21;100.00
40940;BME280;26666;50.156;7.700;2023-02-23T20:06:28;100328.31;;;9.24;100.00
40940;BME280;26666;50.156;7.700;2023-02-23T20:11:30;100329.25;;;9.23;100.00
40940;BME280;26666;50.156;7.700;2023-02-23T20:16:33;100322.19;;;9.24;100.00
40940;BME280;26666;50.156;7.700;2023-02-23T20:21:35;100325.69;;;9.24;100.00
40940;BME280;26666;50.156;7.700;2023-02-23T20:26:37;100338.16;;;9.22;100.00
40940;BME280;26666;50.156;7.700;2023-02-23T20:31:40;100343.28;;;9.24;100.00
40940;BME280;26666;50.156;7.700;2023-02-23T20:36:44;100342.44;;;9.23;100.00
40940;BME280;26666;50.156;7.700;2023-02-23T20:41:46;100340.28;;;9.28;100.00
40940;BME280;26666;50.156;7.700;2023-02-23T20:46:48;100343.63;;;9.31;100.00
40940;BME280;26666;50.156;7.700;2023-02-23T20:51:49;100335.53;;;9.11;100.00
40940;BME280;26666;50.156;7.700;2023-02-23T20:56:51;100335.97;;;9.16;100.00
40940;BME280;26666;50.156;7.700;2023-02-23T21:01:53;100344.03;;;9.15;100.00
40940;BME280;26666;50.156;7.700;2023-02-23T21:06:55;100334.81;;;9.09;100.00
40940;BME280;26666;50.156;7.700;2023-02-23T21:11:58;100334.31;;;9.04;100.00
40940;BME280;26666;50.156;7.700;2023-02-23T21:16:59;100336.72;;;9.07;100.00
40940;BME280;26666;50.156;7.700;2023-02-23T21:22:00;100336.72;;;9.07;100.00
40940;BME280;26666;50.156;7.700;2023-02-23T21:27:03;100324.88;;;9.13;100.00
40940;BME280;26666;50.156;7.700;2023-02-23T21:32:06;100335.03;;;9.06;100.00
40940;BME280;26666;50.156;7.700;2023-02-23T21:37:08;100326.41;;;9.04;100.00
40940;BME280;26666;50.156;7.700;2023-02-23T21:42:10;100325.09;;;9.10;100.00
40940;BME280;26666;50.156;7.700;2023-02-23T21:47:11;100320.53;;;9.00;100.00
40940;BME280;26666;50.156;7.700;2023-02-23T21:52:15;100320.66;;;8.99;100.00
40940;BME280;26666;50.156;7.700;2023-02-23T21:57:17;100329.06;;;8.93;100.00
40940;BME280;26666;50.156;7.700;2023-02-23T22:02:19;100312.91;;;8.97;100.00
40940;BME280;26666;50.156;7.700;2023-02-23T22:07:20;100325.25;;;8.85;100.00
40940;BME280;26666;50.156;7.700;2023-02-23T22:12:22;100313.50;;;8.90;100.00
40940;BME280;26666;50.156;7.700;2023-02-23T22:17:24;100316.75;;;8.93;100.00
40940;BME280;26666;50.156;7.700;2023-02-23T22:22:26;100315.28;;;9.00;100.00
40940;BME280;26666;50.156;7.700;2023-02-23T22:27:27;100315.78;;;8.94;100.00
40940;BME280;26666;50.156;7.700;2023-02-23T22:32:29;100309.88;;;9.02;100.00
40940;BME280;26666;50.156;7.700;2023-02-23T22:37:31;100296.13;;;8.98;100.00
40940;BME280;26666;50.156;7.700;2023-02-23T22:42:32;100296.72;;;9.02;100.00
40940;BME280;26666;50.156;7.700;2023-02-23T22:47:34;100292.66;;;8.98;100.00
40940;BME280;26666;50.156;7.700;2023-02-23T22:52:36;100294.81;;;8.93;100.00
40940;BME280;26666;50.156;7.700;2023-02-23T22:57:38;100293.38;;;8.88;100.00
40940;BME280;26666;50.156;7.700;2023-02-23T23:02:39;100292.53;;;8.88;100.00
40940;BME280;26666;50.156;7.700;2023-02-23T23:07:41;100283.09;;;8.85;100.00
40940;BME280;26666;50.156;7.700;2023-02-23T23:12:43;100277.44;;;8.90;100.00
40940;BME280;26666;50.156;7.700;2023-02-23T23:17:45;100270.88;;;8.84;100.00
40940;BME280;26666;50.156;7.700;2023-02-23T23:22:47;100279.25;;;8.78;100.00
40940;BME280;26666;50.156;7.700;2023-02-23T23:27:49;100260.72;;;8.80;100.00
40940;BME280;26666;50.156;7.700;2023-02-23T23:32:51;100255.44;;;8.80;100.00
40940;BME280;26666;50.156;7.700;2023-02-23T23:37:53;100253.03;;;8.77;100.00
40940;BME280;26666;50.156;7.700;2023-02-23T23:42:54;100246.44;;;8.71;100.00
40940;BME280;26666;50.156;7.700;2023-02-23T23:47:57;100234.84;;;8.74;100.00
40940;BME280;26666;50.156;7.700;2023-02-23T23:52:58;100231.63;;;8.70;100.00
40940;BME280;26666;50.156;7.700;2023-02-23T23:58:00;100225.75;;;8.78;100.00
